Flight Track Log - Related Links

Times and Time Zones

All times are in EDT time to prevent confusion due to time zone crossing. See the UAE787 flight status page for this flight to view local times or setup timezone preferences in your user account.


Time Position Orientation Groundspeed Altitude Reporting Facility
EDT Latitude Longitude Course Direction KTS MPH feet Rate Location/Type
Fri 09:21:00 AM 5.5904 -0.3797 266° West  Level FlightAware Approximate
Fri 09:22:00 AM 5.5855 -0.4507 266° West  Level FlightAware Approximate
Fri 09:23:00 AM 5.5805 -0.5216 266° West  Level FlightAware Approximate
Fri 09:24:00 AM 5.5755 -0.5926 266° West  Level FlightAware Approximate
Fri 09:25:00 AM 5.5706 -0.6636 266° West  Level FlightAware Approximate
Fri 09:26:00 AM 5.5656 -0.7345 266° West  Level FlightAware Approximate
Fri 09:27:00 AM 5.5606 -0.8055 266° West  Level FlightAware Approximate
Fri 09:28:00 AM 5.5556 -0.8765 266° West  Level FlightAware Approximate
Fri 09:29:00 AM 5.5506 -0.9474 266° West  Level FlightAware Approximate
Fri 09:30:00 AM 5.5456 -1.0184 266° West  Level FlightAware Approximate
Fri 09:31:00 AM 5.5406 -1.0893 266° West  Level FlightAware Approximate
Fri 09:32:00 AM 5.5355 -1.1603 266° West  Level FlightAware Approximate
Fri 09:33:00 AM 5.5305 -1.2313 266° West  Level FlightAware Approximate
Fri 09:34:00 AM 5.5254 -1.3022 266° West  Level FlightAware Approximate
Fri 09:35:00 AM 5.5204 -1.3732 266° West  Level FlightAware Approximate
Fri 09:36:00 AM 5.5153 -1.4441 266° West  Level FlightAware Approximate
Fri 09:37:00 AM 5.5103 -1.5151 266° West  Level FlightAware Approximate
Fri 09:38:00 AM 5.5052 -1.5860 266° West  Level FlightAware Approximate
Fri 09:39:00 AM 5.5001 -1.6570 266° West  Level FlightAware Approximate
Fri 09:40:00 AM 5.4950 -1.7279 266° West  Level FlightAware Approximate
Fri 09:41:00 AM 5.4899 -1.7989 266° West  Level FlightAware Approximate
Fri 09:42:00 AM 5.4847 -1.8698 266° West  Level FlightAware Approximate
Fri 09:43:00 AM 5.4796 -1.9408 266° West  Level FlightAware Approximate
Fri 09:44:00 AM 5.4745 -2.0117 266° West  Level FlightAware Approximate
Fri 09:45:00 AM 5.4694 -2.0826 266° West  Level FlightAware Approximate
Fri 09:46:00 AM 5.4642 -2.1536 266° West  Level FlightAware Approximate
Fri 09:47:00 AM 5.4591 -2.2245 266° West  Level FlightAware Approximate
Fri 09:48:00 AM 5.4539 -2.2955 266° West  Level FlightAware Approximate
Fri 09:49:00 AM 5.4487 -2.3664 266° West  Level FlightAware Approximate
Fri 09:50:00 AM 5.4435 -2.4374 266° West  Level FlightAware Approximate
Fri 09:51:00 AM 5.4384 -2.5083 266° West  Level FlightAware Approximate
Fri 09:52:00 AM 5.4331 -2.5792 266° West  Level FlightAware Approximate

Login

Don't have an account? Register now (free) for customized features, flight alerts, and more!